Time;durP1;ratioP1;P1;durP2;ratioP2;P2;SDS_P1;SDS_P2;PMS_P1;PMS_P2;Temp;Humidity;BMP_temperature;BMP_pressure;BME280_temperature;BME280_humidity;BME280_pressure;Samples;Min_cycle;Max_cycle;Signal;HPM_P1;HPM_P2
2021/12/18 00:02:15;;;;;;;0.30;0.30;;;;;;;-1.14;81.25;101497.72;5062309;28;20083;-84
2021/12/18 00:04:41;;;;;;;0.75;0.40;;;;;;;-1.20;81.42;101492.25;5050908;28;20034;-83
2021/12/18 00:07:07;;;;;;;0.85;0.40;;;;;;;-1.23;81.29;101485.34;5040822;28;20041;-84
2021/12/18 00:09:33;;;;;;;0.40;0.40;;;;;;;-1.26;81.40;101481.16;5040479;28;20128;-83
2021/12/18 00:12:00;;;;;;;0.40;0.40;;;;;;;-1.30;81.26;101473.63;5038538;28;20055;-83
2021/12/18 00:14:26;;;;;;;0.95;0.30;;;;;;;-1.34;81.50;101485.81;5052907;28;20053;-83
2021/12/18 00:16:52;;;;;;;0.52;0.40;;;;;;;-1.35;81.46;101481.44;5053323;28;20032;-83
2021/12/18 00:19:24;;;;;;;0.40;0.40;;;;;;;-1.38;81.19;101471.88;5035741;28;20056;-85
2021/12/18 00:21:49;;;;;;;0.40;0.40;;;;;;;-1.37;81.07;101475.41;5049564;28;20036;-83
2021/12/18 00:24:15;;;;;;;0.50;0.40;;;;;;;-1.35;80.86;101467.97;5062069;28;20060;-83
2021/12/18 00:26:41;;;;;;;0.40;0.40;;;;;;;-1.36;81.00;101486.00;5048093;28;20037;-84
2021/12/18 00:29:06;;;;;;;0.35;0.30;;;;;;;-1.31;80.96;101475.50;5055081;28;20139;-83
2021/12/18 00:31:32;;;;;;;0.30;0.30;;;;;;;-1.25;80.89;101471.22;5039832;28;20045;-83
2021/12/18 00:33:57;;;;;;;0.57;0.40;;;;;;;-1.28;81.10;101461.66;5043566;28;20033;-86
2021/12/18 00:36:23;;;;;;;0.55;0.45;;;;;;;-1.26;81.07;101466.88;5045064;28;20077;-84
2021/12/18 00:38:49;;;;;;;0.40;0.40;;;;;;;-1.25;80.79;101455.91;5041692;28;20036;-84
2021/12/18 00:41:48;;;;;;;0.60;0.60;;;;;;;-1.20;81.21;101451.84;5031327;28;20049;-84
2021/12/18 00:44:04;;;;;;;0.50;0.50;;;;;;;-1.15;80.71;101444.88;5037888;28;20414;-84
2021/12/18 00:46:37;;;;;;;0.50;0.50;;;;;;;-1.13;81.04;101447.38;5047821;28;20041;-84
2021/12/18 00:49:05;;;;;;;0.40;0.40;;;;;;;-1.10;80.70;101442.47;5049395;28;20045;-84
2021/12/18 00:51:30;;;;;;;0.55;0.45;;;;;;;-1.09;80.52;101456.75;5053452;28;20041;-83
2021/12/18 00:53:56;;;;;;;0.50;0.50;;;;;;;-1.12;80.31;101433.72;5033346;28;20039;-82
2021/12/18 00:56:22;;;;;;;0.50;0.50;;;;;;;-1.10;80.58;101433.53;5048629;28;20132;-82
2021/12/18 00:58:50;;;;;;;0.52;0.52;;;;;;;-1.07;80.27;101439.41;5042038;28;20044;-82
2021/12/18 01:01:20;;;;;;;0.50;0.50;;;;;;;-1.04;80.27;101441.75;5038506;28;20041;-83
2021/12/18 01:03:48;;;;;;;0.50;0.50;;;;;;;-1.04;80.29;101436.34;5038654;28;20041;-82
2021/12/18 01:06:14;;;;;;;0.40;0.40;;;;;;;-1.02;80.04;101430.78;5048703;28;20537;-83
2021/12/18 01:08:39;;;;;;;0.60;0.60;;;;;;;-1.04;80.25;101439.03;5055772;28;20497;-83
2021/12/18 01:11:25;;;;;;;0.40;0.40;;;;;;;-1.03;80.59;101439.88;5046034;28;20140;-83
2021/12/18 01:16:23;;;;;;;0.40;0.40;;;;;;;-1.02;80.37;101450.47;5048075;28;20049;-83
2021/12/18 01:22:43;;;;;;;0.88;0.73;;;;;;;-1.04;80.73;101481.28;5055645;28;20509;-82
2021/12/18 01:24:46;;;;;;;0.65;0.60;;;;;;;-1.09;80.82;101481.00;5068380;28;20043;-83
2021/12/18 01:27:12;;;;;;;1.45;0.80;;;;;;;-1.17;81.49;101473.03;5053074;28;20041;-83
2021/12/18 01:29:38;;;;;;;2.53;0.98;;;;;;;-1.19;81.77;101473.22;5065871;28;20127;-83
2021/12/18 01:32:04;;;;;;;1.13;0.80;;;;;;;-1.17;82.28;101463.09;5059929;28;20105;-83
2021/12/18 01:34:30;;;;;;;1.67;1.00;;;;;;;-1.17;82.58;101457.69;5060054;28;20492;-83
2021/12/18 01:36:55;;;;;;;2.05;1.10;;;;;;;-1.14;83.05;101449.25;5054557;28;20037;-83
2021/12/18 01:39:21;;;;;;;3.42;1.40;;;;;;;-1.18;83.29;101441.72;5064934;28;20037;-83
2021/12/18 01:52:53;;;;;;;2.13;1.45;;;;;;;-1.20;84.32;101436.53;5055437;28;20037;-82
2021/12/18 01:55:20;;;;;;;3.60;1.50;;;;;;;-1.20;84.43;101430.31;5047394;28;20044;-83
2021/12/18 01:57:46;;;;;;;1.95;1.23;;;;;;;-1.25;84.69;101433.53;5053948;28;20036;-83
2021/12/18 02:00:20;;;;;;;3.05;1.60;;;;;;;-1.27;84.59;101430.19;5053851;28;20059;-83
2021/12/18 02:02:45;;;;;;;2.58;1.38;;;;;;;-1.28;84.84;101425.81;5048698;28;20412;-82
2021/12/18 02:05:12;;;;;;;2.83;1.50;;;;;;;-1.34;84.89;101413.94;5055872;28;20049;-83
2021/12/18 02:07:39;;;;;;;2.55;1.27;;;;;;;-1.38;84.70;101398.34;5061425;28;20473;-84
2021/12/18 02:10:09;;;;;;;3.25;1.30;;;;;;;-1.38;85.04;101399.19;5058173;28;20029;-85
2021/12/18 02:20:52;;;;;;;1.83;1.10;;;;;;;-1.40;85.41;101392.28;5045774;28;20029;-82
2021/12/18 02:23:18;;;;;;;1.17;0.90;;;;;;;-1.38;85.62;101380.34;5049378;28;20052;-84
2021/12/18 02:25:45;;;;;;;2.20;0.93;;;;;;;-1.38;85.67;101383.03;5058463;28;20040;-82
2021/12/18 02:28:18;;;;;;;1.65;1.00;;;;;;;-1.34;85.80;101386.19;5069147;28;20123;-83
2021/12/18 02:30:44;;;;;;;2.00;1.30;;;;;;;-1.37;85.76;101379.31;5047613;28;20048;-83
2021/12/18 02:33:10;;;;;;;1.48;0.80;;;;;;;-1.40;85.60;101371.59;5049745;28;20036;-82
2021/12/18 02:35:43;;;;;;;1.05;0.90;;;;;;;-1.41;85.74;101371.78;5058373;28;20044;-83
2021/12/18 02:38:19;;;;;;;0.88;0.88;;;;;;;-1.46;85.55;101366.97;5049024;28;20040;-83
2021/12/18 02:43:34;;;;;;;0.90;0.85;;;;;;;-1.42;86.06;101346.72;5031022;28;20033;-84
2021/12/18 02:45:59;;;;;;;1.92;1.00;;;;;;;-1.37;86.17;101338.13;5055022;28;20122;-83
2021/12/18 02:48:27;;;;;;;2.08;1.13;;;;;;;-1.34;86.11;101326.97;5014793;28;20531;-82
2021/12/18 02:50:53;;;;;;;0.80;0.80;;;;;;;-1.36;85.96;101316.38;5037785;28;20033;-82
2021/12/18 02:53:19;;;;;;;1.58;1.05;;;;;;;-1.36;85.94;101312.84;5042774;28;20099;-84
2021/12/18 02:55:44;;;;;;;1.33;0.90;;;;;;;-1.36;85.99;101310.16;5056455;28;20073;-83
2021/12/18 02:58:10;;;;;;;0.93;0.85;;;;;;;-1.37;85.95;101305.81;5036379;28;20037;-85
2021/12/18 03:00:36;;;;;;;1.67;1.30;;;;;;;-1.41;86.25;101304.50;5038515;28;20120;-82
2021/12/18 03:03:09;;;;;;;1.15;0.90;;;;;;;-1.43;86.22;101317.31;5051817;28;20186;-83
2021/12/18 03:05:42;;;;;;;1.40;0.90;;;;;;;-1.39;86.37;101314.06;5046540;28;20396;-82
2021/12/18 03:08:15;;;;;;;0.70;0.70;;;;;;;-1.33;86.42;101312.47;5065678;28;20119;-82
2021/12/18 03:24:08;;;;;;;1.58;0.80;;;;;;;-1.22;86.28;101301.22;5056152;28;20202;-82
2021/12/18 03:26:33;;;;;;;1.17;0.98;;;;;;;-1.17;86.27;101304.19;5045399;28;20037;-84
2021/12/18 03:28:59;;;;;;;1.30;1.10;;;;;;;-1.15;86.05;101299.47;5061317;28;20063;-84
2021/12/18 03:31:24;;;;;;;1.25;1.08;;;;;;;-1.13;86.11;101302.78;5048082;28;20064;-83
2021/12/18 03:33:50;;;;;;;1.58;1.25;;;;;;;-1.14;86.24;101290.34;5040148;28;20029;-83
2021/12/18 03:36:16;;;;;;;1.35;1.20;;;;;;;-1.12;86.02;101298.25;5037593;28;20121;-84
2021/12/18 03:38:41;;;;;;;1.75;1.30;;;;;;;-1.11;86.08;101305.31;5051390;28;20045;-83
2021/12/18 03:41:07;;;;;;;2.05;1.58;;;;;;;-1.08;86.30;101294.16;5030534;28;20033;-83
2021/12/18 03:43:33;;;;;;;2.67;1.35;;;;;;;-1.10;85.62;101280.88;5025278;28;20140;-82
2021/12/18 03:45:58;;;;;;;1.58;1.20;;;;;;;-1.15;85.71;101283.31;5058305;28;20033;-82
2021/12/18 03:48:24;;;;;;;2.20;1.30;;;;;;;-1.17;85.82;101290.75;5065286;28;20048;-83
2021/12/18 03:50:52;;;;;;;3.35;1.95;;;;;;;-1.23;86.14;101275.31;5042678;28;20523;-84
2021/12/18 03:53:17;;;;;;;2.97;1.90;;;;;;;-1.20;86.46;101261.50;5053505;28;20044;-83
2021/12/18 03:55:43;;;;;;;2.70;2.00;;;;;;;-1.17;86.39;101252.22;5040016;28;20036;-83
2021/12/18 03:58:08;;;;;;;2.30;1.95;;;;;;;-1.14;86.39;101249.97;5033343;28;20036;-83
2021/12/18 04:00:35;;;;;;;3.47;2.08;;;;;;;-1.13;86.61;101237.34;5047650;28;20042;-84
2021/12/18 04:03:00;;;;;;;4.20;2.00;;;;;;;-1.14;86.62;101239.19;5015493;28;20067;-84
2021/12/18 04:05:26;;;;;;;3.10;1.85;;;;;;;-1.17;86.67;101218.03;5041409;28;20128;-84
2021/12/18 04:07:52;;;;;;;1.83;1.60;;;;;;;-1.19;86.62;101206.63;5055619;28;20041;-83
2021/12/18 04:10:18;;;;;;;2.08;1.73;;;;;;;-1.25;86.60;101204.66;5056292;28;20609;-85
2021/12/18 04:12:46;;;;;;;2.67;1.70;;;;;;;-1.27;86.72;101175.25;5044025;28;20664;-83
2021/12/18 04:15:11;;;;;;;3.03;1.90;;;;;;;-1.23;86.90;101170.31;5040952;28;20512;-83
2021/12/18 04:17:37;;;;;;;3.10;1.55;;;;;;;-1.21;87.07;101160.22;5038649;28;20051;-83
2021/12/18 04:20:04;;;;;;;1.55;1.40;;;;;;;-1.25;87.47;101169.66;5044553;28;20116;-83
2021/12/18 04:22:29;;;;;;;1.65;1.55;;;;;;;-1.39;87.42;101157.09;5020005;28;20040;-83
2021/12/18 04:24:55;;;;;;;3.45;1.58;;;;;;;-1.45;87.46;101163.25;5045338;28;20116;-83
2021/12/18 04:27:21;;;;;;;2.92;1.40;;;;;;;-1.43;87.62;101159.31;5052903;28;20041;-84
2021/12/18 04:29:46;;;;;;;1.92;1.30;;;;;;;-1.38;87.77;101161.47;5052676;28;20408;-83
2021/12/18 04:32:12;;;;;;;1.50;1.40;;;;;;;-1.34;87.98;101162.75;5036075;28;20045;-90
2021/12/18 04:34:37;;;;;;;1.50;1.30;;;;;;;-1.29;88.03;101163.84;5048295;28;20507;-85
2021/12/18 04:37:03;;;;;;;1.90;1.50;;;;;;;-1.30;88.30;101166.72;5020789;28;20041;-84
2021/12/18 04:39:29;;;;;;;2.00;1.50;;;;;;;-1.24;88.19;101163.25;5054853;28;20040;-85
2021/12/18 04:41:57;;;;;;;3.08;1.65;;;;;;;-1.23;88.09;101167.63;5044501;28;20048;-84
2021/12/18 04:44:24;;;;;;;1.92;1.40;;;;;;;-1.24;88.17;101165.94;5048165;28;20039;-83
2021/12/18 04:46:50;;;;;;;2.08;1.70;;;;;;;-1.24;88.18;101160.56;5017489;28;20040;-84
2021/12/18 04:49:15;;;;;;;3.47;1.70;;;;;;;-1.20;88.41;101147.56;5043528;28;20044;-84
2021/12/18 04:51:41;;;;;;;3.13;1.75;;;;;;;-1.20;88.52;101145.72;5055453;28;20028;-84
2021/12/18 04:54:07;;;;;;;1.90;1.60;;;;;;;-1.18;88.48;101137.44;5056921;28;20499;-84
2021/12/18 04:56:33;;;;;;;2.65;1.70;;;;;;;-1.16;88.47;101133.53;5065527;28;20048;-83
2021/12/18 04:58:59;;;;;;;4.38;2.10;;;;;;;-1.14;88.39;101131.47;5060746;28;20123;-83
2021/12/18 05:01:25;;;;;;;2.25;1.70;;;;;;;-1.13;88.66;101135.84;5038590;28;20049;-84
2021/12/18 05:03:50;;;;;;;1.63;1.45;;;;;;;-1.09;88.52;101129.03;5053460;28;20491;-83
2021/12/18 05:06:17;;;;;;;2.20;1.60;;;;;;;-1.12;88.61;101125.91;5054158;28;20048;-83
2021/12/18 05:08:42;;;;;;;2.05;1.85;;;;;;;-1.14;88.77;101123.41;5057945;28;20098;-83
2021/12/18 05:11:08;;;;;;;2.78;1.88;;;;;;;-1.12;88.79;101115.97;5042340;28;20486;-83
2021/12/18 05:13:33;;;;;;;3.05;1.92;;;;;;;-1.17;89.04;101107.63;5068912;28;20044;-83
2021/12/18 05:15:59;;;;;;;2.13;1.92;;;;;;;-1.22;89.03;101089.34;5049976;28;20457;-83
2021/12/18 05:18:25;;;;;;;2.25;1.70;;;;;;;-1.24;89.02;101095.94;5040518;28;20159;-83
2021/12/18 05:20:50;;;;;;;2.15;1.67;;;;;;;-1.27;89.15;101090.94;5066286;28;20070;-83
2021/12/18 05:23:16;;;;;;;3.40;1.77;;;;;;;-1.27;89.41;101097.16;5036713;28;20099;-83
2021/12/18 05:25:41;;;;;;;3.38;1.90;;;;;;;-1.25;89.43;101089.72;5068577;28;20059;-83
2021/12/18 05:28:07;;;;;;;1.83;1.60;;;;;;;-1.24;89.24;101069.84;5049051;28;20229;-83
2021/12/18 05:30:33;;;;;;;1.73;1.40;;;;;;;-1.23;89.33;101062.63;5046646;28;20032;-84
2021/12/18 05:32:58;;;;;;;3.00;1.80;;;;;;;-1.24;89.19;101060.94;5060001;28;20077;-84
2021/12/18 05:35:24;;;;;;;1.95;1.55;;;;;;;-1.27;89.58;101064.03;5052573;28;20041;-83
2021/12/18 05:37:52;;;;;;;1.85;1.30;;;;;;;-1.26;89.61;101058.44;5057306;28;20387;-83
2021/12/18 05:40:20;;;;;;;1.77;1.50;;;;;;;-1.26;89.49;101042.28;5047362;28;20411;-83
2021/12/18 05:42:47;;;;;;;1.45;1.35;;;;;;;-1.25;89.87;101033.19;5048351;28;20045;-83
2021/12/18 05:45:12;;;;;;;1.70;1.58;;;;;;;-1.23;89.69;101028.44;5057929;28;20044;-83
2021/12/18 05:47:38;;;;;;;1.98;1.55;;;;;;;-1.22;89.66;101030.09;5056015;28;20086;-83
2021/12/18 05:50:06;;;;;;;2.55;1.40;;;;;;;-1.23;89.86;101027.59;5060162;28;20147;-83
2021/12/18 05:52:32;;;;;;;2.75;2.03;;;;;;;-1.21;89.98;101017.50;5062492;28;20045;-83
2021/12/18 05:54:58;;;;;;;1.80;1.50;;;;;;;-1.20;90.14;101018.34;5067688;28;20399;-83
2021/12/18 05:57:23;;;;;;;2.08;1.58;;;;;;;-1.22;89.88;101021.19;5069977;28;20040;-83
2021/12/18 05:59:50;;;;;;;2.65;1.75;;;;;;;-1.27;89.94;101012.88;5053348;28;20044;-83
2021/12/18 06:02:16;;;;;;;1.88;1.73;;;;;;;-1.25;90.12;100997.38;5060872;28;20044;-83
2021/12/18 06:04:42;;;;;;;2.20;2.00;;;;;;;-1.19;90.25;100985.84;5051261;28;20033;-83
2021/12/18 06:07:27;;;;;;;2.10;1.90;;;;;;;-1.14;90.19;100977.97;5068524;28;20045;-83
2021/12/18 06:09:53;;;;;;;2.90;1.77;;;;;;;-1.10;90.36;100981.94;5051708;28;20131;-81
2021/12/18 06:12:18;;;;;;;2.47;1.85;;;;;;;-1.08;90.28;100979.88;5043708;28;20123;-82
2021/12/18 06:14:44;;;;;;;2.38;1.98;;;;;;;-1.12;90.43;100984.00;5055804;28;20144;-82
2021/12/18 06:17:09;;;;;;;3.28;1.83;;;;;;;-1.16;90.04;100979.22;5055594;28;20568;-82
2021/12/18 06:19:35;;;;;;;3.50;2.20;;;;;;;-1.15;90.29;100968.25;5055552;28;20041;-83
2021/12/18 06:22:00;;;;;;;4.80;1.90;;;;;;;-1.08;90.57;100966.41;5067357;28;20376;-83
2021/12/18 06:24:28;;;;;;;2.47;1.73;;;;;;;-1.03;90.52;100960.47;5044736;28;20043;-84
2021/12/18 06:26:55;;;;;;;2.22;1.92;;;;;;;-1.00;90.34;100963.59;5035097;28;20045;-83
2021/12/18 06:29:21;;;;;;;2.80;1.92;;;;;;;-1.10;90.55;100968.47;5060559;28;20163;-83
2021/12/18 06:31:47;;;;;;;4.65;1.50;;;;;;;-1.15;90.48;100960.16;5062793;28;20132;-83
2021/12/18 06:34:13;;;;;;;3.40;1.80;;;;;;;-1.19;90.49;100944.63;5030551;28;20044;-83
2021/12/18 06:36:39;;;;;;;2.33;1.60;;;;;;;-1.16;90.38;100941.53;5060312;28;20547;-84
2021/12/18 06:39:05;;;;;;;3.97;1.70;;;;;;;-1.15;90.30;100938.63;5066484;28;20079;-82
2021/12/18 06:41:30;;;;;;;2.78;1.60;;;;;;;-1.16;90.69;100941.53;5042362;28;20075;-82
2021/12/18 06:43:56;;;;;;;2.28;1.70;;;;;;;-1.13;90.37;100943.81;5049800;28;20071;-82
2021/12/18 06:46:22;;;;;;;2.60;1.50;;;;;;;-1.09;90.84;100932.44;5047237;28;20090;-83
2021/12/18 06:48:48;;;;;;;1.80;1.40;;;;;;;-1.06;90.69;100928.50;5039938;28;20043;-84
2021/12/18 06:51:16;;;;;;;1.83;1.20;;;;;;;-1.05;90.66;100917.53;5056510;28;20075;-85
2021/12/18 06:53:42;;;;;;;2.17;1.50;;;;;;;-1.07;91.18;100924.16;5067885;28;20032;-83
2021/12/18 06:56:07;;;;;;;1.92;1.10;;;;;;;-1.11;90.89;100929.13;5059284;28;20290;-83
2021/12/18 06:58:33;;;;;;;1.92;1.20;;;;;;;-1.15;91.13;100927.84;5044335;28;20072;-82
2021/12/18 07:00:58;;;;;;;2.35;1.60;;;;;;;-1.19;91.21;100931.97;5058758;28;20055;-84
2021/12/18 07:03:25;;;;;;;2.42;1.25;;;;;;;-1.17;91.07;100918.31;5063551;28;20381;-84
2021/12/18 07:05:50;;;;;;;1.98;1.77;;;;;;;-1.11;91.52;100918.34;5067667;28;20539;-84
2021/12/18 07:08:16;;;;;;;1.30;1.20;;;;;;;-1.06;91.56;100913.19;5060143;28;20037;-82
2021/12/18 07:10:43;;;;;;;1.38;1.08;;;;;;;-1.02;91.49;100917.19;5051605;28;20047;-83
2021/12/18 07:13:09;;;;;;;1.88;1.20;;;;;;;-1.08;91.51;100919.81;5045500;28;20530;-83
2021/12/18 07:15:35;;;;;;;1.38;1.20;;;;;;;-1.12;91.48;100916.69;5053143;28;20056;-83
2021/12/18 07:18:00;;;;;;;3.35;1.27;;;;;;;-1.10;91.74;100913.78;5057319;28;20221;-83
2021/12/18 07:20:27;;;;;;;2.53;1.55;;;;;;;-1.07;91.70;100903.44;5047064;28;20049;-83
2021/12/18 07:22:54;;;;;;;2.70;1.67;;;;;;;-1.07;91.82;100889.97;5040900;28;20045;-83
2021/12/18 07:25:19;;;;;;;2.45;1.20;;;;;;;-1.03;91.74;100877.81;5054415;28;20033;-84
2021/12/18 07:27:45;;;;;;;1.73;1.10;;;;;;;-1.03;91.58;100874.28;5066970;28;20053;-82
2021/12/18 07:30:12;;;;;;;2.38;1.40;;;;;;;-1.01;91.64;100881.13;5053464;28;20040;-85
2021/12/18 07:32:38;;;;;;;3.03;1.60;;;;;;;-1.00;91.62;100877.41;5059627;28;20124;-84
2021/12/18 07:35:05;;;;;;;2.22;1.40;;;;;;;-1.02;91.63;100865.16;5065325;28;20036;-85
2021/12/18 07:37:31;;;;;;;3.03;1.80;;;;;;;-1.00;91.52;100866.63;5066628;28;20041;-83
2021/12/18 07:39:57;;;;;;;2.22;1.58;;;;;;;-1.02;91.77;100857.09;5055914;28;20094;-83
2021/12/18 07:42:22;;;;;;;2.33;1.63;;;;;;;-0.99;91.84;100851.31;5050535;28;20384;-84
2021/12/18 07:44:48;;;;;;;3.20;2.28;;;;;;;-0.97;91.98;100838.47;5050511;28;20064;-84
2021/12/18 07:47:14;;;;;;;3.42;2.22;;;;;;;-0.97;92.20;100825.81;5045163;28;20064;-84
2021/12/18 07:49:40;;;;;;;6.00;2.35;;;;;;;-0.96;91.88;100816.72;5065671;28;20032;-84
2021/12/18 07:52:06;;;;;;;5.68;2.72;;;;;;;-1.00;92.32;100812.75;5064617;28;20041;-82
2021/12/18 07:54:32;;;;;;;8.60;3.03;;;;;;;-0.99;92.56;100798.25;5042239;28;20069;-82
2021/12/18 07:56:58;;;;;;;5.72;2.67;;;;;;;-0.98;92.59;100791.84;5057981;28;20070;-83
2021/12/18 07:59:23;;;;;;;5.00;2.72;;;;;;;-0.96;92.70;100786.25;5049192;28;20037;-84
2021/12/18 08:01:49;;;;;;;4.35;2.60;;;;;;;-0.96;92.74;100784.38;5067120;28;20037;-81
2021/12/18 08:04:14;;;;;;;4.15;2.72;;;;;;;-0.94;92.67;100781.50;5049834;28;20041;-84
2021/12/18 08:06:40;;;;;;;7.75;3.05;;;;;;;-0.94;93.06;100776.09;5062933;28;20517;-82
2021/12/18 08:09:06;;;;;;;4.93;3.25;;;;;;;-0.96;93.23;100779.00;5055704;28;20052;-82
2021/12/18 08:11:32;;;;;;;5.07;3.53;;;;;;;-0.97;93.27;100768.44;5037394;28;20124;-83
2021/12/18 08:13:57;;;;;;;7.30;3.60;;;;;;;-0.95;93.25;100771.75;5050042;28;20070;-82
2021/12/18 08:16:23;;;;;;;7.00;3.35;;;;;;;-0.91;93.52;100767.59;5060702;28;20175;-84
2021/12/18 08:18:49;;;;;;;6.38;3.90;;;;;;;-0.86;93.53;100761.63;5063307;28;20036;-84
2021/12/18 08:21:15;;;;;;;7.15;3.50;;;;;;;-0.89;94.17;100748.53;5029067;28;20513;-83
2021/12/18 08:23:40;;;;;;;7.50;3.63;;;;;;;-0.91;94.07;100746.88;5053408;28;20032;-83
2021/12/18 08:26:06;;;;;;;8.35;3.97;;;;;;;-0.82;94.31;100744.03;5046216;28;20041;-83
2021/12/18 08:28:32;;;;;;;6.18;4.22;;;;;;;-0.80;94.54;100721.22;5056363;28;20123;-83
2021/12/18 08:30:58;;;;;;;5.93;3.75;;;;;;;-0.76;94.61;100724.34;5060917;28;20033;-83
2021/12/18 08:33:23;;;;;;;6.82;3.88;;;;;;;-0.77;94.82;100719.97;5033980;28;20061;-83
2021/12/18 08:35:49;;;;;;;7.45;3.97;;;;;;;-0.73;94.90;100702.38;5066822;28;20518;-83
2021/12/18 08:38:15;;;;;;;5.80;4.00;;;;;;;-0.65;95.26;100694.09;5057587;28;20538;-85
2021/12/18 08:40:42;;;;;;;8.25;4.00;;;;;;;-0.60;95.35;100699.69;5052558;28;20037;-83
2021/12/18 08:43:07;;;;;;;6.50;3.40;;;;;;;-0.55;95.47;100699.88;5031462;28;20041;-83
2021/12/18 08:45:33;;;;;;;8.05;4.53;;;;;;;-0.55;95.78;100707.97;5059625;28;20037;-82
2021/12/18 08:47:59;;;;;;;7.03;4.10;;;;;;;-0.46;96.01;100695.13;5045660;28;20068;-81
2021/12/18 08:50:25;;;;;;;5.55;2.80;;;;;;;-0.40;95.86;100705.91;5054665;28;20046;-89
2021/12/18 08:52:51;;;;;;;2.65;2.17;;;;;;;-0.35;96.35;100700.75;5043707;28;20057;-88
2021/12/18 08:55:18;;;;;;;4.80;3.05;;;;;;;-0.35;96.37;100702.59;5033867;28;20078;-89
2021/12/18 08:57:44;;;;;;;6.88;2.83;;;;;;;-0.35;96.28;100702.59;5035579;28;20037;-82
2021/12/18 09:00:12;;;;;;;5.88;2.72;;;;;;;-0.41;96.25;100692.63;5038705;28;20136;-81
2021/12/18 09:02:40;;;;;;;4.97;2.72;;;;;;;-0.44;96.44;100683.09;5030609;28;20041;-83
2021/12/18 09:05:07;;;;;;;6.50;3.22;;;;;;;-0.40;96.25;100670.03;5060555;28;20055;-82
2021/12/18 09:07:33;;;;;;;7.03;3.30;;;;;;;-0.37;96.48;100665.06;5043609;28;20041;-81
2021/12/18 09:09:59;;;;;;;6.28;3.35;;;;;;;-0.36;96.71;100652.41;5051475;28;20457;-82
2021/12/18 09:12:25;;;;;;;5.15;2.92;;;;;;;-0.36;96.83;100649.69;5042584;28;20071;-82
2021/12/18 09:14:51;;;;;;;9.65;3.75;;;;;;;-0.34;96.91;100634.16;5050164;28;20132;-83
2021/12/18 09:17:16;;;;;;;8.88;4.13;;;;;;;-0.20;96.90;100635.78;5065849;28;20067;-83
2021/12/18 09:19:42;;;;;;;6.63;3.15;;;;;;;-0.10;96.96;100616.47;5050632;28;20040;-81
2021/12/18 09:22:09;;;;;;;7.32;3.13;;;;;;;-0.06;97.18;100617.69;5051012;28;20131;-81
2021/12/18 09:24:35;;;;;;;6.63;3.15;;;;;;;-0.09;97.30;100610.03;5063230;28;20044;-83
2021/12/18 09:27:01;;;;;;;7.57;3.80;;;;;;;-0.14;97.28;100607.16;5055626;28;20043;-87
2021/12/18 09:29:27;;;;;;;5.72;3.20;;;;;;;-0.12;97.41;100603.22;5032848;28;20041;-80
2021/12/18 09:31:52;;;;;;;5.57;2.78;;;;;;;-0.06;97.21;100617.69;5023675;28;20490;-83
2021/12/18 09:34:18;;;;;;;5.22;2.95;;;;;;;0.01;97.53;100605.03;5054462;28;20047;-83
2021/12/18 09:36:43;;;;;;;4.85;3.30;;;;;;;0.04;97.44;100596.53;5066362;28;20491;-81
2021/12/18 09:39:09;;;;;;;4.40;2.55;;;;;;;0.07;97.57;100590.69;5057284;28;20033;-80
2021/12/18 09:41:36;;;;;;;4.60;2.45;;;;;;;0.08;97.68;100578.84;5069932;28;20098;-80
2021/12/18 09:44:02;;;;;;;4.78;2.83;;;;;;;0.10;97.72;100584.88;5050588;28;20061;-82
2021/12/18 09:46:30;;;;;;;3.70;2.30;;;;;;;0.13;97.64;100575.50;5042503;28;20064;-82
2021/12/18 09:48:56;;;;;;;5.57;3.05;;;;;;;0.20;97.62;100573.63;5057481;28;20087;-83
2021/12/18 09:51:27;;;;;;;3.42;2.20;;;;;;;0.22;97.83;100575.06;5028478;28;20048;-84
2021/12/18 09:53:54;;;;;;;2.22;2.03;;;;;;;0.21;97.85;100567.19;5022014;28;20029;-86
2021/12/18 09:56:20;;;;;;;4.20;2.00;;;;;;;0.17;97.84;100552.44;5030479;28;20037;-83
2021/12/18 09:58:46;;;;;;;5.32;2.22;;;;;;;0.17;97.63;100555.97;5059839;28;20037;-81
2021/12/18 10:01:12;;;;;;;3.17;2.40;;;;;;;0.22;97.73;100542.69;5030073;28;20035;-88
2021/12/18 10:03:57;;;;;;;2.47;2.17;;;;;;;0.22;97.74;100536.47;5028653;28;20036;-82
2021/12/18 10:06:41;;;;;;;5.22;2.28;;;;;;;0.26;97.82;100522.31;5028502;28;20052;-79
2021/12/18 10:09:10;;;;;;;4.35;2.55;;;;;;;0.32;97.92;100506.28;5037730;28;20033;-82
2021/12/18 10:11:49;;;;;;;2.70;2.38;;;;;;;0.37;98.04;100507.31;5014553;28;20048;-89
2021/12/18 10:14:16;;;;;;;3.58;2.20;;;;;;;0.43;98.05;100502.91;5033721;28;20099;-82
2021/12/18 10:16:47;;;;;;;2.42;1.73;;;;;;;0.39;97.98;100501.69;5040293;28;20033;-81
2021/12/18 10:19:24;;;;;;;5.18;2.63;;;;;;;0.37;97.93;100501.09;5054030;28;20521;-81
2021/12/18 10:22:02;;;;;;;5.20;3.10;;;;;;;0.38;98.08;100486.53;5072491;28;20116;-81
2021/12/18 10:24:29;;;;;;;2.92;2.35;;;;;;;0.36;97.86;100488.63;5055457;28;20060;-81
2021/12/18 10:26:55;;;;;;;4.82;3.08;;;;;;;0.35;98.17;100478.84;5060884;28;20495;-81
2021/12/18 10:29:25;;;;;;;6.47;3.22;;;;;;;0.34;98.16;100479.91;5053717;28;20056;-82
2021/12/18 10:31:51;;;;;;;3.30;2.60;;;;;;;0.29;98.02;100472.47;5056185;28;20086;-82
2021/12/18 10:34:24;;;;;;;5.80;3.10;;;;;;;0.27;98.06;100470.00;5055732;28;20037;-80
2021/12/18 10:37:08;;;;;;;3.53;2.58;;;;;;;0.27;98.08;100466.47;5054909;28;20033;-81
2021/12/18 10:39:35;;;;;;;3.45;2.63;;;;;;;0.22;98.16;100459.03;5057521;28;20048;-81
2021/12/18 10:42:18;;;;;;;4.28;2.60;;;;;;;0.28;98.17;100451.94;5059894;28;20172;-82
2021/12/18 10:45:04;;;;;;;2.30;1.80;;;;;;;0.20;98.02;100452.19;5047161;28;20045;-81
2021/12/18 10:47:48;;;;;;;4.38;2.90;;;;;;;0.15;98.42;100442.03;5046453;28;20041;-82
2021/12/18 10:50:34;;;;;;;2.53;2.03;;;;;;;0.12;98.28;100449.75;5026493;28;20073;-80
2021/12/18 10:53:23;;;;;;;3.50;2.30;;;;;;;0.15;98.16;100444.75;5060639;28;20042;-82
2021/12/18 10:55:57;;;;;;;2.60;1.80;;;;;;;0.17;98.07;100431.03;5032685;28;20040;-81
2021/12/18 10:58:34;;;;;;;4.70;1.90;;;;;;;0.10;98.39;100425.69;5061657;28;20132;-80
2021/12/18 11:01:07;;;;;;;2.65;1.77;;;;;;;0.06;98.25;100416.38;5040968;28;20033;-81
2021/12/18 11:03:32;;;;;;;1.52;1.35;;;;;;;0.04;98.35;100407.69;5048554;28;20545;-77
2021/12/18 11:06:16;;;;;;;2.28;1.67;;;;;;;0.02;98.27;100399.00;5039927;28;20579;-81
2021/12/18 11:09:07;;;;;;;3.70;2.20;;;;;;;0.03;98.43;100397.13;5058308;28;20044;-77
2021/12/18 11:14:16;;;;;;;4.05;2.17;;;;;;;0.26;98.43;100392.78;5040928;28;20119;-77
2021/12/18 11:16:49;;;;;;;3.72;1.75;;;;;;;0.19;98.43;100381.22;5040270;28;20067;-78
2021/12/18 11:19:22;;;;;;;3.10;1.98;;;;;;;0.17;98.52;100375.19;5051571;28;20299;-78
2021/12/18 11:21:54;;;;;;;2.92;1.30;;;;;;;0.14;98.85;100361.31;5038019;28;20028;-77
2021/12/18 11:24:49;;;;;;;1.80;1.15;;;;;;;0.11;98.50;100350.97;5062417;28;20147;-76
2021/12/18 11:27:17;;;;;;;3.53;1.80;;;;;;;0.07;98.78;100353.28;5067123;28;20725;-77
2021/12/18 11:29:51;;;;;;;1.67;1.15;;;;;;;0.04;98.53;100342.13;5036407;28;20490;-77
2021/12/18 11:32:20;;;;;;;1.58;1.25;;;;;;;-0.02;98.64;100336.53;5062513;28;20072;-78
2021/12/18 11:34:47;;;;;;;1.77;1.35;;;;;;;0.01;98.67;100335.31;5061683;28;20051;-76
2021/12/18 11:37:15;;;;;;;2.75;1.58;;;;;;;0.06;98.79;100326.53;5036295;28;20045;-77
2021/12/18 11:39:43;;;;;;;2.03;1.40;;;;;;;0.12;98.83;100325.66;5065764;28;20059;-78
2021/12/18 11:42:10;;;;;;;3.00;1.67;;;;;;;0.18;98.89;100309.44;5056587;28;20032;-78
2021/12/18 11:44:38;;;;;;;1.65;1.50;;;;;;;0.19;99.02;100302.97;5058471;28;20059;-76
2021/12/18 11:47:27;;;;;;;2.50;1.77;;;;;;;0.27;99.01;100296.47;5064232;28;20110;-77
2021/12/18 11:50:06;;;;;;;1.33;1.15;;;;;;;0.29;99.01;100283.56;5036891;28;20058;-78
2021/12/18 11:53:00;;;;;;;2.25;1.35;;;;;;;0.14;99.26;100292.00;5046294;28;20037;-78
2021/12/18 11:55:29;;;;;;;1.98;1.50;;;;;;;0.06;99.12;100277.97;5066961;28;20071;-78
2021/12/18 11:57:58;;;;;;;;;;;;;;;0.02;99.28;100272.22;5055637;28;20051;-78
2021/12/18 12:00:31;;;;;;;;;;;;;;;-0.01;99.09;100253.75;5056206;28;19928;-78
2021/12/18 12:02:59;;;;;;;1.70;1.50;;;;;;;-0.02;99.19;100257.50;5059088;28;19920;-77
2021/12/18 12:05:43;;;;;;;2.55;1.63;;;;;;;-0.04;99.36;100246.94;5067036;28;20166;-78
2021/12/18 12:08:30;;;;;;;2.15;1.05;;;;;;;-0.04;99.29;100233.44;5049741;28;20127;-78
2021/12/18 12:11:24;;;;;;;3.42;1.77;;;;;;;-0.02;99.33;100228.66;5055811;28;20045;-78
2021/12/18 12:14:01;;;;;;;1.75;1.65;;;;;;;-0.02;99.59;100228.66;5038583;28;20040;-79
2021/12/18 12:17:00;;;;;;;3.83;1.73;;;;;;;-0.02;99.27;100217.84;5060476;28;20426;-77